createdAt,value
2022-10-03T00:00:51.884Z,8.1
2022-10-03T00:02:00.311Z,8.1
2022-10-03T00:03:08.809Z,8.1
2022-10-03T00:04:17.340Z,8
2022-10-03T00:05:25.714Z,8
2022-10-03T00:06:34.142Z,8
2022-10-03T00:07:42.723Z,6.9
2022-10-03T00:08:51.145Z,6.9
2022-10-03T00:09:59.546Z,6.9
2022-10-03T00:11:08.142Z,8.4
2022-10-03T00:12:16.524Z,8.4
2022-10-03T00:13:24.920Z,8.4
2022-10-03T00:14:33.549Z,7.6
2022-10-03T00:15:41.954Z,7.6
2022-10-03T00:16:50.351Z,7.6
2022-10-03T00:17:58.945Z,7.5
2022-10-03T00:19:07.366Z,7.5
2022-10-03T00:20:15.776Z,7.5
2022-10-03T00:21:24.357Z,7.5
2022-10-03T00:22:32.877Z,7.5
2022-10-03T00:23:41.145Z,7.5
2022-10-03T00:24:49.773Z,10.8
2022-10-03T00:25:58.169Z,10.8
2022-10-03T00:27:06.567Z,10.8
2022-10-03T00:28:15.219Z,8.2
2022-10-03T00:29:23.600Z,8.2
2022-10-03T00:30:31.986Z,8.2
2022-10-03T00:31:40.865Z,7.9
2022-10-03T00:32:49.011Z,7.9
2022-10-03T00:33:57.396Z,7.9
2022-10-03T00:35:06.004Z,6
2022-10-03T00:36:14.452Z,6
2022-10-03T00:37:22.923Z,6
2022-10-03T00:38:31.574Z,11.1
2022-10-03T00:39:39.967Z,11.1
2022-10-03T00:40:48.362Z,11.1
2022-10-03T00:41:56.953Z,8.3
2022-10-03T00:43:05.349Z,8.3
2022-10-03T00:44:13.767Z,8.3
2022-10-03T00:45:22.359Z,6.9
2022-10-03T00:46:30.797Z,6.9
2022-10-03T00:47:39.135Z,6.9
2022-10-03T00:48:47.743Z,9.8
2022-10-03T00:49:56.159Z,9.8
2022-10-03T00:51:04.552Z,9.8
2022-10-03T00:52:13.143Z,9.8
2022-10-03T00:53:21.561Z,9.8
2022-10-03T00:54:29.981Z,9.8
2022-10-03T00:55:38.542Z,10.8
2022-10-03T00:56:46.931Z,10.8
2022-10-03T00:57:55.423Z,10.8
2022-10-03T00:59:04.033Z,7.2
2022-10-03T01:00:12.431Z,7.2
2022-10-03T01:01:21.739Z,7.2
2022-10-03T01:02:29.481Z,9.1
2022-10-03T01:03:37.900Z,9.1
2022-10-03T01:04:46.300Z,9.1
2022-10-03T01:05:54.903Z,9.1
2022-10-03T01:07:03.271Z,9.1
2022-10-03T01:08:11.681Z,9.1
2022-10-03T01:09:20.272Z,10.3
2022-10-03T01:10:28.690Z,10.3
2022-10-03T01:11:37.305Z,10.3
2022-10-03T01:12:45.691Z,8.1
2022-10-03T01:13:54.101Z,8.1
2022-10-03T01:15:02.539Z,8.1
2022-10-03T01:16:11.266Z,8.5
2022-10-03T01:17:19.622Z,8.5
2022-10-03T01:18:28.180Z,8.5
2022-10-03T01:19:36.698Z,10.9
2022-10-03T01:20:45.146Z,10.9
2022-10-03T01:21:53.573Z,10.9
2022-10-03T01:23:02.154Z,9.7
2022-10-03T01:24:10.560Z,9.7
2022-10-03T01:25:18.957Z,9.7
2022-10-03T01:26:27.591Z,10.7
2022-10-03T01:27:35.977Z,10.7
2022-10-03T01:28:44.366Z,10.7
2022-10-03T01:29:52.967Z,9.9
2022-10-03T01:31:01.410Z,9.9
2022-10-03T01:32:09.746Z,9.9
2022-10-03T01:33:18.352Z,10.6
2022-10-03T01:34:26.757Z,10.6
2022-10-03T01:35:35.143Z,10.6
2022-10-03T01:36:43.754Z,7.8
2022-10-03T01:37:52.139Z,7.8
2022-10-03T01:39:00.553Z,7.8
2022-10-03T01:40:09.165Z,9
2022-10-03T01:41:17.579Z,9
2022-10-03T01:42:26.022Z,9
2022-10-03T01:43:34.600Z,10
2022-10-03T01:44:43.018Z,10
2022-10-03T01:45:51.395Z,10
2022-10-03T01:47:00.005Z,11.5
2022-10-03T01:48:08.405Z,11.5
2022-10-03T01:49:16.819Z,11.5
2022-10-03T01:50:25.401Z,7.1
2022-10-03T01:51:33.784Z,7.1
2022-10-03T01:52:42.188Z,7.1
2022-10-03T01:53:50.854Z,7
2022-10-03T01:54:59.257Z,7
2022-10-03T01:56:07.647Z,7
2022-10-03T01:57:16.257Z,9.7
2022-10-03T01:58:24.739Z,9.7
2022-10-03T01:59:33.137Z,9.7
2022-10-03T02:00:41.774Z,8.5
2022-10-03T02:01:50.245Z,8.5
2022-10-03T02:02:58.571Z,8.5
2022-10-03T02:04:07.164Z,7.1
2022-10-03T02:05:15.576Z,7.1
2022-10-03T02:06:23.967Z,7.1
2022-10-03T02:07:32.563Z,9.6
2022-10-03T02:08:40.959Z,9.6
2022-10-03T02:09:49.371Z,9.6
2022-10-03T02:10:57.956Z,8.4
2022-10-03T02:12:06.361Z,8.4
2022-10-03T02:13:14.765Z,8.4
2022-10-03T02:14:23.402Z,9.6
2022-10-03T02:15:31.789Z,9.6
2022-10-03T02:16:40.224Z,9.6
2022-10-03T02:17:48.805Z,7.2
2022-10-03T02:18:57.196Z,7.2
2022-10-03T02:20:05.602Z,7.2
2022-10-03T02:21:14.188Z,9.5
2022-10-03T02:22:22.614Z,9.5
2022-10-03T02:23:30.989Z,9.5
2022-10-03T02:24:39.596Z,8.4
2022-10-03T02:25:48.008Z,8.4
2022-10-03T02:26:58.536Z,8.4
2022-10-03T02:28:05.068Z,9.1
2022-10-03T02:29:13.454Z,9.1
2022-10-03T02:30:21.861Z,9.1
2022-10-03T02:31:30.451Z,8.8
2022-10-03T02:32:38.836Z,8.8
2022-10-03T02:33:47.207Z,8.8
2022-10-03T02:34:55.807Z,11.9
2022-10-03T02:36:04.193Z,11.9
2022-10-03T02:37:12.719Z,11.9
2022-10-03T02:38:21.303Z,10.3
2022-10-03T02:39:29.740Z,10.3
2022-10-03T02:40:38.109Z,10.3
2022-10-03T02:41:46.708Z,10.2
2022-10-03T02:42:55.174Z,10.2
2022-10-03T02:44:03.580Z,10.2
2022-10-03T02:45:12.204Z,11.7
2022-10-03T02:46:20.627Z,11.7
2022-10-03T02:47:29.052Z,11.7
2022-10-03T02:48:37.624Z,7.7
2022-10-03T02:49:46.025Z,7.7
2022-10-03T02:50:54.451Z,7.7
2022-10-03T02:52:03.048Z,8.2
2022-10-03T02:53:11.466Z,8.2
2022-10-03T02:54:19.843Z,8.2
2022-10-03T02:55:28.468Z,8.8
2022-10-03T02:56:36.910Z,8.8
2022-10-03T02:57:45.307Z,8.8
2022-10-03T02:58:53.945Z,9.6
2022-10-03T03:00:02.289Z,9.6
2022-10-03T03:01:10.737Z,9.6
2022-10-03T03:02:19.382Z,11.6
2022-10-03T03:03:27.699Z,11.6
2022-10-03T03:04:36.099Z,11.6
2022-10-03T03:05:44.695Z,11
2022-10-03T03:06:53.114Z,11
2022-10-03T03:08:01.536Z,11
2022-10-03T03:09:10.133Z,8.4
2022-10-03T03:10:18.535Z,8.4
2022-10-03T03:11:26.916Z,8.4
2022-10-03T03:12:39.209Z,10.1
2022-10-03T03:13:43.941Z,10.1
2022-10-03T03:14:52.331Z,10.1
2022-10-03T03:16:00.968Z,9
2022-10-03T03:17:09.351Z,9
2022-10-03T03:18:17.770Z,9
2022-10-03T03:19:26.325Z,9.5
2022-10-03T03:20:34.821Z,9.5
2022-10-03T03:21:43.372Z,9.5
2022-10-03T03:22:51.863Z,10
2022-10-03T03:24:00.260Z,10
2022-10-03T03:25:08.650Z,10
2022-10-03T03:26:17.263Z,11.7
2022-10-03T03:27:25.677Z,11.7
2022-10-03T03:28:34.062Z,11.7
2022-10-03T03:29:42.687Z,8.2
2022-10-03T03:30:51.068Z,8.2
2022-10-03T03:31:59.474Z,8.2
2022-10-03T03:33:08.073Z,13.4
2022-10-03T03:34:16.495Z,13.4
2022-10-03T03:35:24.926Z,13.4
2022-10-03T03:36:33.523Z,9
2022-10-03T03:37:41.928Z,9
2022-10-03T03:38:50.339Z,9
2022-10-03T03:39:58.952Z,9.3
2022-10-03T03:41:07.334Z,9.3
2022-10-03T03:42:15.736Z,9.3
2022-10-03T03:43:24.336Z,7.3
2022-10-03T03:44:32.813Z,7.3
2022-10-03T03:45:41.218Z,7.3
2022-10-03T03:46:49.767Z,10.9
2022-10-03T03:47:58.173Z,10.9
2022-10-03T03:49:06.568Z,10.9
2022-10-03T03:50:15.205Z,9.3
2022-10-03T03:51:23.659Z,9.3
2022-10-03T03:52:32.066Z,9.3
2022-10-03T03:53:40.649Z,10.8
2022-10-03T03:54:49.062Z,10.8
2022-10-03T03:55:57.475Z,10.8
2022-10-03T03:57:06.629Z,11.9
2022-10-03T03:58:15.020Z,11.9
2022-10-03T03:59:23.485Z,11.9
2022-10-03T04:00:32.077Z,10.8
2022-10-03T04:01:40.682Z,10.8
2022-10-03T04:02:48.889Z,10.8
2022-10-03T04:03:57.541Z,8.3
2022-10-03T04:05:05.950Z,8.3
2022-10-03T04:06:14.467Z,8.3
2022-10-03T04:07:23.044Z,9.7
2022-10-03T04:08:31.421Z,9.7
2022-10-03T04:09:39.866Z,9.7
2022-10-03T04:10:48.516Z,9.5
2022-10-03T04:11:56.908Z,9.5
2022-10-03T04:13:05.376Z,9.5
2022-10-03T04:14:13.997Z,8.3
2022-10-03T04:15:22.417Z,8.3
2022-10-03T04:16:30.928Z,8.3
2022-10-03T04:17:39.467Z,9.5
2022-10-03T04:18:47.863Z,9.5
2022-10-03T04:19:56.343Z,9.5
2022-10-03T04:21:04.939Z,11.3
2022-10-03T04:22:13.369Z,11.3
2022-10-03T04:23:21.731Z,11.3
2022-10-03T04:24:30.346Z,10.3
2022-10-03T04:25:38.805Z,10.3
2022-10-03T04:26:47.200Z,10.3
2022-10-03T04:27:55.914Z,8.4
2022-10-03T04:29:04.227Z,8.4
2022-10-03T04:30:12.685Z,8.4
2022-10-03T04:31:21.314Z,8.1
2022-10-03T04:32:29.723Z,8.1
2022-10-03T04:33:38.118Z,8.1
2022-10-03T04:34:46.779Z,7
2022-10-03T04:35:55.180Z,7
2022-10-03T04:37:03.629Z,7
2022-10-03T04:38:12.226Z,12.7
2022-10-03T04:39:20.619Z,12.7
2022-10-03T04:40:29.025Z,12.7
2022-10-03T04:41:40.898Z,7.1
2022-10-03T04:42:46.051Z,7.1
2022-10-03T04:43:54.470Z,7.1
2022-10-03T04:45:03.061Z,11.3
2022-10-03T04:46:11.519Z,11.3
2022-10-03T04:47:19.906Z,11.3
2022-10-03T04:48:28.497Z,6.6
2022-10-03T04:49:36.944Z,6.6
2022-10-03T04:50:45.340Z,6.6
2022-10-03T04:51:55.633Z,9.7
2022-10-03T04:53:02.200Z,9.7
2022-10-03T04:54:10.539Z,9.7
2022-10-03T04:55:19.050Z,11.5
2022-10-03T04:56:27.391Z,11.5
2022-10-03T04:57:35.699Z,11.5
2022-10-03T04:58:44.255Z,7.2
2022-10-03T04:59:52.557Z,7.2
2022-10-03T05:01:00.932Z,7.2
2022-10-03T05:02:09.474Z,5.6
2022-10-03T05:03:17.735Z,5.6
2022-10-03T05:04:26.084Z,5.6
2022-10-03T05:05:34.610Z,7.8
2022-10-03T05:06:42.958Z,7.8
2022-10-03T05:07:51.302Z,7.8
2022-10-03T05:08:59.814Z,9.6
2022-10-03T05:10:11.499Z,9.6
2022-10-03T05:11:16.485Z,9.6
2022-10-03T05:12:25.012Z,6.7
2022-10-03T05:13:33.344Z,6.7
2022-10-03T05:14:41.664Z,6.7
2022-10-03T05:15:50.180Z,9.5
2022-10-03T05:16:58.581Z,9.5
2022-10-03T05:18:06.844Z,9.5
2022-10-03T05:19:15.383Z,7.7
2022-10-03T05:20:23.694Z,7.7
2022-10-03T05:21:32.016Z,7.7
2022-10-03T05:22:40.539Z,9.8
2022-10-03T05:23:48.871Z,9.8
2022-10-03T05:24:57.205Z,9.8
2022-10-03T05:26:23.435Z,11.8
2022-10-03T05:27:14.068Z,11.8
2022-10-03T05:28:22.440Z,11.8
2022-10-03T05:29:30.955Z,8.5
2022-10-03T05:30:39.270Z,8.5
2022-10-03T05:31:47.661Z,8.5
2022-10-03T05:32:56.147Z,9
2022-10-03T05:34:04.471Z,9
2022-10-03T05:35:12.999Z,9
2022-10-03T05:36:21.539Z,9.1
2022-10-03T05:37:29.856Z,9.1
2022-10-03T05:38:38.179Z,9.1
2022-10-03T05:39:46.707Z,11.3
2022-10-03T05:40:55.019Z,11.3
2022-10-03T05:42:21.331Z,11.3
2022-10-03T05:43:11.858Z,8.7
2022-10-03T05:44:20.174Z,8.7
2022-10-03T05:45:28.547Z,8.7
2022-10-03T05:46:37.030Z,9.1
2022-10-03T05:47:45.375Z,9.1
2022-10-03T05:48:53.700Z,9.1
2022-10-03T05:50:04.614Z,7.6
2022-10-03T05:51:10.555Z,7.6
2022-10-03T05:52:18.879Z,7.6
2022-10-03T05:53:27.411Z,7.9
2022-10-03T05:54:35.733Z,7.9
2022-10-03T05:55:44.060Z,7.9
2022-10-03T05:56:52.583Z,8.9
2022-10-03T05:58:00.939Z,8.9
2022-10-03T05:59:09.194Z,8.9
2022-10-03T06:00:17.751Z,9.6
2022-10-03T06:01:26.091Z,9.6
2022-10-03T06:02:34.459Z,9.6
2022-10-03T06:03:42.922Z,8.3
2022-10-03T06:04:51.263Z,8.3
2022-10-03T06:05:59.581Z,8.3
2022-10-03T06:07:08.122Z,9.6
2022-10-03T06:08:16.427Z,9.6
2022-10-03T06:09:24.755Z,9.6
2022-10-03T06:10:33.293Z,8.8
2022-10-03T06:11:41.987Z,8.8
2022-10-03T06:12:49.923Z,8.8
2022-10-03T06:13:58.475Z,9.8
2022-10-03T06:15:06.780Z,9.8
2022-10-03T06:16:15.152Z,9.8
2022-10-03T06:17:23.646Z,8.8
2022-10-03T06:18:31.978Z,8.8
2022-10-03T06:19:40.300Z,8.8
2022-10-03T06:20:48.847Z,7.7
2022-10-03T06:21:57.183Z,7.7
2022-10-03T06:23:06.186Z,7.7
2022-10-03T06:24:14.019Z,7.8
2022-10-03T06:25:22.340Z,7.8
2022-10-03T06:26:30.651Z,7.8
2022-10-03T06:27:39.175Z,7.9
2022-10-03T06:28:47.504Z,7.9
2022-10-03T06:29:55.852Z,7.9
2022-10-03T06:31:04.391Z,8.8
2022-10-03T06:32:12.665Z,8.8
2022-10-03T06:33:20.993Z,8.8
2022-10-03T06:34:29.511Z,17.1
2022-10-03T06:35:37.835Z,17.1
2022-10-03T06:36:46.180Z,17.1
2022-10-03T06:37:54.702Z,7.3
2022-10-03T06:39:03.023Z,7.3
2022-10-03T06:40:11.350Z,7.3
2022-10-03T06:41:19.880Z,30.200001
2022-10-03T06:42:28.210Z,30.200001
2022-10-03T06:43:36.515Z,30.200001
2022-10-03T06:44:45.069Z,84.400002
2022-10-03T06:45:53.450Z,84.400002
2022-10-03T06:47:01.690Z,84.400002
2022-10-03T06:48:10.359Z,24.5
2022-10-03T06:49:18.687Z,24.5
2022-10-03T06:50:27.017Z,24.5
2022-10-03T06:51:35.540Z,7.9
2022-10-03T06:52:43.850Z,7.9
2022-10-03T06:53:52.154Z,7.9
2022-10-03T06:55:00.702Z,8.3
2022-10-03T06:56:09.023Z,8.3
2022-10-03T06:57:17.328Z,8.3
2022-10-03T06:58:25.842Z,7.7
2022-10-03T06:59:34.187Z,7.7
2022-10-03T07:00:42.504Z,7.7
2022-10-03T07:01:51.125Z,8.9
2022-10-03T07:02:59.443Z,8.9
2022-10-03T07:04:07.670Z,8.9
2022-10-03T07:05:16.204Z,6.6
2022-10-03T07:06:24.535Z,6.6
2022-10-03T07:07:32.845Z,6.6
2022-10-03T07:08:41.377Z,8.5
2022-10-03T07:09:49.706Z,8.5
2022-10-03T07:10:58.008Z,8.5
2022-10-03T07:12:09.664Z,7.7
2022-10-03T07:13:14.853Z,7.7
2022-10-03T07:14:23.174Z,7.7
2022-10-03T07:15:51.034Z,7.5
2022-10-03T07:16:40.066Z,7.5
2022-10-03T07:17:48.367Z,7.5
2022-10-03T07:18:56.872Z,8.2
2022-10-03T07:20:05.209Z,8.2
2022-10-03T07:21:16.667Z,8.2
2022-10-03T07:22:22.045Z,6.8
2022-10-03T07:23:30.386Z,6.8
2022-10-03T07:24:38.702Z,6.8
2022-10-03T07:25:47.214Z,7.2
2022-10-03T07:26:55.536Z,7.2
2022-10-03T07:28:03.884Z,7.2
2022-10-03T07:29:12.381Z,7.8
2022-10-03T07:30:20.703Z,7.8
2022-10-03T07:31:29.088Z,7.8
2022-10-03T07:32:37.539Z,7.7
2022-10-03T07:33:45.903Z,7.7
2022-10-03T07:34:54.211Z,7.7
2022-10-03T07:36:02.735Z,6
2022-10-03T07:37:11.044Z,6
2022-10-03T07:38:19.357Z,6
2022-10-03T07:39:27.881Z,7.9
2022-10-03T07:40:36.219Z,7.9
2022-10-03T07:41:44.549Z,7.9
2022-10-03T07:42:53.069Z,6.6
2022-10-03T07:44:01.390Z,6.6
2022-10-03T07:45:09.714Z,6.6
2022-10-03T07:46:18.290Z,5.8
2022-10-03T07:47:26.567Z,5.8
2022-10-03T07:48:34.895Z,5.8
2022-10-03T07:49:43.447Z,6.5
2022-10-03T07:50:51.759Z,6.5
2022-10-03T07:52:00.121Z,6.5
2022-10-03T07:53:08.604Z,9.5
2022-10-03T07:54:16.920Z,9.5
2022-10-03T07:55:25.235Z,9.5
2022-10-03T07:56:33.753Z,5.6
2022-10-03T07:57:42.066Z,5.6
2022-10-03T07:58:50.381Z,5.6
2022-10-03T07:59:58.918Z,6.8
2022-10-03T08:01:07.245Z,6.8
2022-10-03T08:02:15.630Z,6.8
2022-10-03T08:03:24.117Z,10.5
2022-10-03T08:04:32.426Z,10.5
2022-10-03T08:05:40.768Z,10.5
2022-10-03T08:06:49.273Z,9.4
2022-10-03T08:07:57.598Z,9.4
2022-10-03T08:09:05.913Z,9.4
2022-10-03T08:10:14.449Z,5.9
2022-10-03T08:11:22.766Z,5.9
2022-10-03T08:12:31.073Z,5.9
2022-10-03T08:13:39.601Z,6.3
2022-10-03T08:14:47.944Z,6.3
2022-10-03T08:15:56.312Z,6.3
2022-10-03T08:17:04.797Z,10.2
2022-10-03T08:18:13.130Z,10.2
2022-10-03T08:19:21.440Z,10.2
2022-10-03T08:20:29.966Z,9.6
2022-10-03T08:21:38.530Z,9.6
2022-10-03T08:22:46.610Z,9.6
2022-10-03T08:23:55.153Z,6.9
2022-10-03T08:25:03.487Z,6.9
2022-10-03T08:26:11.805Z,6.9
2022-10-03T08:27:20.362Z,8.2
2022-10-03T08:28:28.769Z,8.2
2022-10-03T08:29:37.024Z,8.2
2022-10-03T08:30:45.611Z,7.6
2022-10-03T08:31:53.873Z,7.6
2022-10-03T08:33:02.189Z,7.6
2022-10-03T08:34:10.744Z,7.3
2022-10-03T08:35:19.054Z,7.3
2022-10-03T08:36:27.365Z,7.3
2022-10-03T08:37:35.927Z,7.8
2022-10-03T08:38:44.237Z,7.8
2022-10-03T08:39:52.565Z,7.8
2022-10-03T08:41:01.105Z,9
2022-10-03T08:42:09.399Z,9
2022-10-03T08:43:17.731Z,9
2022-10-03T08:44:30.297Z,6
2022-10-03T08:45:34.576Z,6
2022-10-03T08:46:42.911Z,6
2022-10-03T08:47:51.411Z,8.1
2022-10-03T08:48:59.754Z,8.1
2022-10-03T08:50:08.082Z,8.1
2022-10-03T08:51:16.618Z,9.5
2022-10-03T08:52:24.928Z,9.5
2022-10-03T08:53:33.273Z,9.5
2022-10-03T08:54:41.774Z,5.3
2022-10-03T08:55:50.093Z,5.3
2022-10-03T08:56:58.427Z,5.3
2022-10-03T08:58:06.953Z,8.3
2022-10-03T08:59:15.271Z,8.3
2022-10-03T09:00:23.591Z,8.3
2022-10-03T09:01:32.141Z,7.4
2022-10-03T09:02:40.466Z,7.4
2022-10-03T09:03:48.861Z,7.4
2022-10-03T09:04:57.285Z,6.6
2022-10-03T09:06:05.619Z,6.6
2022-10-03T09:07:17.366Z,6.6
2022-10-03T09:08:22.483Z,6
2022-10-03T09:09:34.368Z,6
2022-10-03T09:10:39.131Z,6
2022-10-03T09:11:47.660Z,6.8
2022-10-03T09:12:55.969Z,6.8
2022-10-03T09:14:04.294Z,6.8
2022-10-03T09:15:12.829Z,5.7
2022-10-03T09:16:21.234Z,5.7
2022-10-03T09:17:29.456Z,5.7
2022-10-03T09:18:38.004Z,6.9
2022-10-03T09:19:46.341Z,6.9
2022-10-03T09:20:54.649Z,6.9
2022-10-03T09:22:03.180Z,6.7
2022-10-03T09:23:11.506Z,6.7
2022-10-03T09:24:19.807Z,6.7
2022-10-03T09:25:28.362Z,5
2022-10-03T09:26:36.866Z,5
2022-10-03T09:27:44.998Z,5
2022-10-03T09:28:53.535Z,4.8
2022-10-03T09:30:01.840Z,4.8
2022-10-03T09:31:10.247Z,4.8
2022-10-03T09:32:18.686Z,6.4
2022-10-03T09:33:27.017Z,6.4
2022-10-03T09:34:35.327Z,6.4
2022-10-03T09:35:43.859Z,4.6
2022-10-03T09:36:52.166Z,4.6
2022-10-03T09:38:00.501Z,4.6
2022-10-03T09:39:09.030Z,6.3
2022-10-03T09:40:17.467Z,6.3
2022-10-03T09:41:25.693Z,6.3
2022-10-03T09:42:34.209Z,6.5
2022-10-03T09:43:42.531Z,6.5
2022-10-03T09:44:50.842Z,6.5
2022-10-03T09:45:59.371Z,5.6
2022-10-03T09:47:07.683Z,5.6
2022-10-03T09:48:16.006Z,5.6
2022-10-03T09:49:24.540Z,5.3
2022-10-03T09:50:32.860Z,5.3
2022-10-03T09:51:41.405Z,5.3
2022-10-03T09:52:49.722Z,5.6
2022-10-03T09:53:58.042Z,5.6
2022-10-03T09:55:06.360Z,5.6
2022-10-03T09:56:14.882Z,4.4
2022-10-03T09:57:23.252Z,4.4
2022-10-03T09:58:31.546Z,4.4
2022-10-03T09:59:40.048Z,5.3
2022-10-03T10:00:48.395Z,5.3
2022-10-03T10:01:56.702Z,5.3
2022-10-03T10:03:05.215Z,4.3
2022-10-03T10:04:13.577Z,4.3
2022-10-03T10:05:21.846Z,4.3
2022-10-03T10:06:30.377Z,3.8
2022-10-03T10:07:38.710Z,3.8
2022-10-03T10:08:47.027Z,3.8
2022-10-03T10:09:55.551Z,5.8
2022-10-03T10:11:03.869Z,5.8
2022-10-03T10:12:12.197Z,5.8
2022-10-03T10:13:20.754Z,3.4
2022-10-03T10:14:29.046Z,3.4
2022-10-03T10:15:37.366Z,3.4
2022-10-03T10:16:48.260Z,4.8
2022-10-03T10:17:54.217Z,4.8
2022-10-03T10:19:02.538Z,4.8
2022-10-03T10:20:11.068Z,4.4
2022-10-03T10:21:19.383Z,4.4
2022-10-03T10:22:27.719Z,4.4
2022-10-03T10:23:36.243Z,5.8
2022-10-03T10:24:44.560Z,5.8
2022-10-03T10:25:52.876Z,5.8
2022-10-03T10:27:01.402Z,3.9
2022-10-03T10:28:09.752Z,3.9
2022-10-03T10:29:18.060Z,3.9
2022-10-03T10:30:26.563Z,5.5
2022-10-03T10:31:34.913Z,5.5
2022-10-03T10:32:43.210Z,5.5
2022-10-03T10:33:51.734Z,5.4
2022-10-03T10:35:00.050Z,5.4
2022-10-03T10:36:08.368Z,5.4
2022-10-03T10:37:16.910Z,3.3
2022-10-03T10:38:25.247Z,3.3
2022-10-03T10:39:33.550Z,3.3
2022-10-03T10:40:42.070Z,4.5
2022-10-03T10:41:50.404Z,4.5
2022-10-03T10:42:58.720Z,4.5
2022-10-03T10:44:07.249Z,4.5
2022-10-03T10:45:15.574Z,4.5
2022-10-03T10:46:23.968Z,4.5
2022-10-03T10:47:32.409Z,4.3
2022-10-03T10:48:40.742Z,4.3
2022-10-03T10:49:49.059Z,4.3
2022-10-03T10:50:57.617Z,2.7
2022-10-03T10:52:05.929Z,2.7
2022-10-03T10:53:14.246Z,2.7
2022-10-03T10:54:22.782Z,4.5
2022-10-03T10:55:31.121Z,4.5
2022-10-03T10:56:39.746Z,4.5
2022-10-03T10:57:47.954Z,4.6
2022-10-03T10:58:56.276Z,4.6
2022-10-03T11:00:04.646Z,4.6
2022-10-03T11:01:13.215Z,4.5
2022-10-03T11:02:21.457Z,4.5
2022-10-03T11:03:29.798Z,4.5
2022-10-03T11:04:42.993Z,3.6
2022-10-03T11:05:51.252Z,3.6
2022-10-03T11:06:59.578Z,3.6
2022-10-03T11:08:08.124Z,5
2022-10-03T11:09:16.440Z,5
2022-10-03T11:10:24.779Z,5
2022-10-03T11:11:33.689Z,4.8
2022-10-03T11:12:42.001Z,4.8
2022-10-03T11:13:50.323Z,4.8
2022-10-03T11:14:58.858Z,3.6
2022-10-03T11:16:07.217Z,3.6
2022-10-03T11:17:15.535Z,3.6
2022-10-03T11:18:24.037Z,3.4
2022-10-03T11:19:32.367Z,3.4
2022-10-03T11:20:40.670Z,3.4
2022-10-03T11:21:49.220Z,4.7
2022-10-03T11:23:01.056Z,4.7
2022-10-03T11:24:05.849Z,4.7
2022-10-03T11:25:14.380Z,4.3
2022-10-03T11:26:22.702Z,4.3
2022-10-03T11:27:31.028Z,4.3
2022-10-03T11:28:39.644Z,3.9
2022-10-03T11:29:47.877Z,3.9
2022-10-03T11:30:56.196Z,3.9
2022-10-03T11:32:04.718Z,5.2
2022-10-03T11:33:13.079Z,5.2
2022-10-03T11:34:21.394Z,5.2
2022-10-03T11:35:29.921Z,4.7
2022-10-03T11:36:38.619Z,4.7
2022-10-03T11:37:46.563Z,4.7
2022-10-03T11:38:55.104Z,5.8
2022-10-03T11:40:03.424Z,5.8
2022-10-03T11:41:11.743Z,5.8
2022-10-03T11:42:20.270Z,6.5
2022-10-03T11:43:28.601Z,6.5
2022-10-03T11:44:36.923Z,6.5
2022-10-03T11:45:45.541Z,4.5
2022-10-03T11:46:53.781Z,4.5
2022-10-03T11:48:02.113Z,4.5
2022-10-03T11:49:10.665Z,5.5
2022-10-03T11:50:18.988Z,5.5
2022-10-03T11:51:27.307Z,5.5
2022-10-03T11:52:35.832Z,5.8
2022-10-03T11:53:44.148Z,5.8
2022-10-03T11:54:52.486Z,5.8
2022-10-03T11:56:01.039Z,4.6
2022-10-03T11:57:09.345Z,4.6
2022-10-03T11:58:17.671Z,4.6
2022-10-03T11:59:27.016Z,3.8
2022-10-03T12:00:34.531Z,3.8
2022-10-03T12:01:43.144Z,3.8
2022-10-03T12:02:51.547Z,5.1
2022-10-03T12:03:59.710Z,5.1
2022-10-03T12:05:08.066Z,5.1
2022-10-03T12:06:16.607Z,3.8
2022-10-03T12:07:24.937Z,3.8
2022-10-03T12:08:33.269Z,3.8
2022-10-03T12:09:41.788Z,3.3
2022-10-03T12:10:50.115Z,3.3
2022-10-03T12:11:58.470Z,3.3
2022-10-03T12:13:06.990Z,3.8
2022-10-03T12:14:15.322Z,3.8
2022-10-03T12:15:23.639Z,3.8
2022-10-03T12:16:32.240Z,2.7
2022-10-03T12:17:40.518Z,2.7
2022-10-03T12:18:48.821Z,2.7
2022-10-03T12:19:57.416Z,4.3
2022-10-03T12:21:05.759Z,4.3
2022-10-03T12:22:14.073Z,4.3
2022-10-03T12:23:22.608Z,4.2
2022-10-03T12:24:30.941Z,4.2
2022-10-03T12:25:39.267Z,4.2
2022-10-03T12:26:47.799Z,4.5
2022-10-03T12:27:56.175Z,4.5
2022-10-03T12:29:04.446Z,4.5
2022-10-03T12:30:12.999Z,2.9
2022-10-03T12:31:21.371Z,2.9
2022-10-03T12:32:29.652Z,2.9
2022-10-03T12:33:38.208Z,3
2022-10-03T12:34:46.527Z,3
2022-10-03T12:35:54.892Z,3
2022-10-03T12:37:03.561Z,2.7
2022-10-03T12:38:11.751Z,2.7
2022-10-03T12:39:20.063Z,2.7
2022-10-03T12:40:28.595Z,2.6
2022-10-03T12:41:37.222Z,2.6
2022-10-03T12:42:45.253Z,2.6
2022-10-03T12:43:53.770Z,4.5
2022-10-03T12:45:02.085Z,4.5
2022-10-03T12:46:10.474Z,4.5
2022-10-03T12:47:27.582Z,2.7
2022-10-03T12:48:27.297Z,2.7
2022-10-03T12:49:35.634Z,2.7
2022-10-03T12:50:44.173Z,4.6
2022-10-03T12:51:52.481Z,4.6
2022-10-03T12:53:00.851Z,4.6
2022-10-03T12:54:09.376Z,2.6
2022-10-03T12:55:17.701Z,2.6
2022-10-03T12:56:26.011Z,2.6
2022-10-03T12:57:34.541Z,4.4
2022-10-03T12:58:42.856Z,4.4
2022-10-03T12:59:51.193Z,4.4
2022-10-03T13:00:59.805Z,3.9
2022-10-03T13:02:08.088Z,3.9
2022-10-03T13:03:16.384Z,3.9
2022-10-03T13:04:24.946Z,4.4
2022-10-03T13:05:33.314Z,4.4
2022-10-03T13:07:04.267Z,4.4
2022-10-03T13:07:50.195Z,5.6
2022-10-03T13:08:58.529Z,5.6
2022-10-03T13:10:06.833Z,5.6
2022-10-03T13:11:15.397Z,3.1
2022-10-03T13:12:27.591Z,3.1
2022-10-03T13:13:32.059Z,3.1
2022-10-03T13:14:40.576Z,4.1
2022-10-03T13:15:48.985Z,4.1
2022-10-03T13:16:57.236Z,4.1
2022-10-03T13:18:05.783Z,2.9
2022-10-03T13:19:14.496Z,2.9
2022-10-03T13:20:22.656Z,2.9
2022-10-03T13:21:45.337Z,2.6
2022-10-03T13:22:39.524Z,2.6
2022-10-03T13:23:47.866Z,2.6
2022-10-03T13:24:56.535Z,3.3
2022-10-03T13:26:09.024Z,3.3
2022-10-03T13:27:13.048Z,3.3
2022-10-03T13:28:21.647Z,4
2022-10-03T13:29:29.907Z,4
2022-10-03T13:30:38.284Z,4
2022-10-03T13:31:46.770Z,3.9
2022-10-03T13:32:55.098Z,3.9
2022-10-03T13:34:03.439Z,3.9
2022-10-03T13:35:11.971Z,2.6
2022-10-03T13:36:20.297Z,2.6
2022-10-03T13:37:28.599Z,2.6
2022-10-03T13:38:37.151Z,3.1
2022-10-03T13:39:45.481Z,3.1
2022-10-03T13:40:53.808Z,3.1
2022-10-03T13:42:02.322Z,3.6
2022-10-03T13:43:10.650Z,3.6
2022-10-03T13:44:18.964Z,3.6
2022-10-03T13:45:27.503Z,3.4
2022-10-03T13:46:35.825Z,3.4
2022-10-03T13:47:44.136Z,3.4
2022-10-03T13:48:52.663Z,2.7
2022-10-03T13:50:01.017Z,2.7
2022-10-03T13:51:09.345Z,2.7
2022-10-03T13:52:17.885Z,2
2022-10-03T13:53:26.223Z,2
2022-10-03T13:54:34.539Z,2
2022-10-03T13:55:43.055Z,4.2
2022-10-03T13:56:51.413Z,4.2
2022-10-03T13:57:59.710Z,4.2
2022-10-03T13:59:08.239Z,2.2
2022-10-03T14:00:16.564Z,2.2
2022-10-03T14:01:24.912Z,2.2
2022-10-03T14:02:33.445Z,2.1
2022-10-03T14:03:41.713Z,2.1
2022-10-03T14:04:50.067Z,2.1
2022-10-03T14:05:58.582Z,4.1
2022-10-03T14:07:06.907Z,4.1
2022-10-03T14:08:15.245Z,4.1
2022-10-03T14:09:23.782Z,2
2022-10-03T14:10:32.121Z,2
2022-10-03T14:11:40.729Z,2
2022-10-03T14:12:55.600Z,4.1
2022-10-03T14:13:57.285Z,4.1
2022-10-03T14:15:05.607Z,4.1
2022-10-03T14:16:14.183Z,4.3
2022-10-03T14:17:22.490Z,4.3
2022-10-03T14:18:30.798Z,4.3
2022-10-03T14:19:39.341Z,2.4
2022-10-03T14:20:47.668Z,2.4
2022-10-03T14:21:55.993Z,2.4
2022-10-03T14:23:04.529Z,3.6
2022-10-03T14:24:12.878Z,3.6
2022-10-03T14:25:21.165Z,3.6
2022-10-03T14:26:29.710Z,3.6
2022-10-03T14:27:38.020Z,3.6
2022-10-03T14:28:46.392Z,3.6
2022-10-03T15:02:49.554Z,0
2022-10-03T15:03:57.797Z,0
2022-10-03T15:05:06.109Z,0
2022-10-03T15:06:14.652Z,3
2022-10-03T15:07:22.979Z,3
2022-10-03T15:08:31.289Z,3
2022-10-03T15:09:39.827Z,2.7
2022-10-03T15:10:48.153Z,2.7
2022-10-03T15:11:56.463Z,2.7
2022-10-03T15:13:04.991Z,3.4
2022-10-03T15:14:13.306Z,3.4
2022-10-03T15:15:21.626Z,3.4
2022-10-03T15:16:30.252Z,2.6
2022-10-03T15:17:38.476Z,2.6
2022-10-03T15:18:46.836Z,2.6
2022-10-03T15:19:55.343Z,3.3
2022-10-03T15:21:03.650Z,3.3
2022-10-03T15:22:11.969Z,3.3
2022-10-03T15:23:20.532Z,4.4
2022-10-03T15:24:28.830Z,4.4
2022-10-03T15:25:37.150Z,4.4
2022-10-03T15:26:45.673Z,3.4
2022-10-03T15:27:54.056Z,3.4
2022-10-03T15:29:02.331Z,3.4
2022-10-03T15:30:10.873Z,4.2
2022-10-03T15:31:19.302Z,4.2
2022-10-03T15:32:27.509Z,4.2
2022-10-03T15:33:36.052Z,6.2
2022-10-03T15:34:44.512Z,6.2
2022-10-03T15:35:52.715Z,6.2
2022-10-03T15:37:01.256Z,3.4
2022-10-03T15:38:09.592Z,3.4
2022-10-03T15:39:17.935Z,3.4
2022-10-03T15:40:26.460Z,4.8
2022-10-03T15:41:34.811Z,4.8
2022-10-03T15:42:43.161Z,4.8
2022-10-03T15:43:51.698Z,2.6
2022-10-03T15:45:00.034Z,2.6
2022-10-03T15:46:08.471Z,2.6
2022-10-03T15:47:16.887Z,3.2
2022-10-03T15:48:25.235Z,3.2
2022-10-03T15:49:33.554Z,3.2
2022-10-03T15:50:42.103Z,4.1
2022-10-03T15:51:50.462Z,4.1
2022-10-03T15:53:08.146Z,4.1
2022-10-03T15:54:07.334Z,5
2022-10-03T15:55:15.697Z,5
2022-10-03T15:56:23.990Z,5
2022-10-03T15:57:32.534Z,3.1
2022-10-03T15:58:40.872Z,3.1
2022-10-03T15:59:49.196Z,3.1
2022-10-03T16:00:57.808Z,4.7
2022-10-03T16:02:06.145Z,4.7
2022-10-03T16:03:14.456Z,4.7
2022-10-03T16:04:22.983Z,5.7
2022-10-03T16:05:31.288Z,5.7
2022-10-03T16:06:39.733Z,5.7
2022-10-03T16:07:48.150Z,4.9
2022-10-03T16:08:56.460Z,4.9
2022-10-03T16:10:04.779Z,4.9
2022-10-03T16:11:13.299Z,2.6
2022-10-03T16:12:21.638Z,2.6
2022-10-03T16:13:29.953Z,2.6
2022-10-03T16:14:38.488Z,3.5
2022-10-03T16:15:46.823Z,3.5